Thunder radar more information blitzortung!


Radar de pluja more information rain snow radar


Visita la nostra xarxa de llocs de meteo:

Template documentation
and downloads

And another site



No particular awareness of the weather is required.    There are no Weather-warnings

Pagina Historial Weather Underground text

Diari Resum Agost 26, 2017 Unitats:  Tant    Imperial   Mètric
« Previous Dia
SegĂźent Dia »
Diari Setmana Mensual Anual Personalitzada
  Maxima: Minima: Media:
Temperatura: 88.9 °F /  31.6 °C 68.9 °F /  20.5 °C 80.1 °F /  26.7 °C
Punt de rosada: 67.3 °F /  19.6 °C 62.8 °F /  17.1 °C 65.5 °F /  18.6 °C
Humitat: 83 % 45 % 62 %
Wind Speed: 12.7 mph /  20.4 km/h - 4.3 mph /  7 km/h
RĂ fegues de vent: 12.7 mph /  20.4 km/h - -
Vent:- - SE
Pression baro: 30.1 in /  1017.8 hPa 29.9 in /  1013.8 hPa -
Precipitacions: 0 in /  0.0 mm    
Historical Graphs
 
 
Dades de taula per Agost 26, 2017
Temps Temperatura Punt de rosada Pression baro Vent Wind Speed RĂ fegues de vent Humitat Rainfall Rate (Hourly)
00:00 73.8 °F /  23.2 °C 63.3 °F /  17.4 °C 30.1 in /  1017.8 hPa West 2.3 mph /  3.7 km/h 2.9 mph /  4.7 km/h 70 % 0 in /  0.0 mm
00:05 73.9 °F /  23.3 °C 63.9 °F /  17.7 °C 30.1 in /  1017.8 hPa West 2.9 mph /  4.7 km/h 2.9 mph /  4.7 km/h 71 % 0 in /  0.0 mm
00:10 73.8 °F /  23.2 °C 63.9 °F /  17.7 °C 30.1 in /  1017.8 hPa West 3.5 mph /  5.6 km/h 3.5 mph /  5.6 km/h 71 % 0 in /  0.0 mm
00:15 73.9 °F /  23.3 °C 64.2 °F /  17.9 °C 30 in /  1016.8 hPa WSW 2.3 mph /  3.7 km/h 2.3 mph /  3.7 km/h 72 % 0 in /  0.0 mm
00:20 73.8 °F /  23.2 °C 64.2 °F /  17.9 °C 30 in /  1016.8 hPa NE 2.3 mph /  3.7 km/h   72 % 0 in /  0.0 mm
00:30 70.9 °F /  21.6 °C 64 °F /  17.8 °C 30 in /  1014.8 hPa Calm   2 mph /  3.2 km/h 79 % 0 in /  0.0 mm
00:40 70.7 °F /  21.5 °C 63.9 °F /  17.7 °C 30 in /  1014.8 hPa Calm     79 % 0 in /  0.0 mm
00:50 70.5 °F /  21.4 °C 63.7 °F /  17.6 °C 30 in /  1014.8 hPa Calm     79 % 0 in /  0.0 mm
01:00 70.3 °F /  21.3 °C 63.5 °F /  17.5 °C 30 in /  1014.8 hPa WNW 1 mph /  1.6 km/h 1 mph /  1.6 km/h 79 % 0 in /  0.0 mm
01:10 70.3 °F /  21.3 °C 63.9 °F /  17.7 °C 30 in /  1014.8 hPa NE 1 mph /  1.6 km/h   80 % 0 in /  0.0 mm
01:20 70.2 °F /  21.2 °C 63.7 °F /  17.6 °C 30 in /  1014.8 hPa Calm     80 % 0 in /  0.0 mm
01:30 70 °F /  21.1 °C 63.5 °F /  17.5 °C 29.9 in /  1013.8 hPa Calm     80 % 0 in /  0.0 mm
01:40 69.8 °F /  21.0 °C 63.3 °F /  17.4 °C 29.9 in /  1013.8 hPa Calm     80 % 0 in /  0.0 mm
01:50 69.8 °F /  21.0 °C 63 °F /  17.2 °C 30 in /  1014.8 hPa WNW 2 mph /  3.2 km/h 2 mph /  3.2 km/h 79 % 0 in /  0.0 mm
02:00 69.6 °F /  20.9 °C 63.5 °F /  17.5 °C 30 in /  1014.8 hPa Calm   2 mph /  3.2 km/h 81 % 0 in /  0.0 mm
02:10 69.8 °F /  21.0 °C 63.3 °F /  17.4 °C 30 in /  1014.8 hPa Calm   2 mph /  3.2 km/h 80 % 0 in /  0.0 mm
02:20 70.2 °F /  21.2 °C 64 °F /  17.8 °C 30 in /  1014.8 hPa Calm     81 % 0 in /  0.0 mm
02:30 70.3 °F /  21.3 °C 64.2 °F /  17.9 °C 30 in /  1014.8 hPa West 1 mph /  1.6 km/h 2 mph /  3.2 km/h 81 % 0 in /  0.0 mm
02:40 70.3 °F /  21.3 °C 63.9 °F /  17.7 °C 30 in /  1014.8 hPa ENE 1 mph /  1.6 km/h 2 mph /  3.2 km/h 80 % 0 in /  0.0 mm
02:50 70 °F /  21.1 °C 63.5 °F /  17.5 °C 30 in /  1014.8 hPa NE 1 mph /  1.6 km/h 2 mph /  3.2 km/h 80 % 0 in /  0.0 mm
03:00 70 °F /  21.1 °C 63.5 °F /  17.5 °C 30 in /  1014.8 hPa Calm     80 % 0 in /  0.0 mm
03:10 69.6 °F /  20.9 °C 63.5 °F /  17.5 °C 30 in /  1014.8 hPa Calm     81 % 0 in /  0.0 mm
03:20 69.4 °F /  20.8 °C 63.3 °F /  17.4 °C 30 in /  1015.8 hPa East 1 mph /  1.6 km/h 2 mph /  3.2 km/h 81 % 0 in /  0.0 mm
03:30 69.3 °F /  20.7 °C 63.1 °F /  17.3 °C 30 in /  1014.8 hPa SSW 1 mph /  1.6 km/h 1 mph /  1.6 km/h 81 % 0 in /  0.0 mm
03:40 69.1 °F /  20.6 °C 63.3 °F /  17.4 °C 30 in /  1014.8 hPa Calm   1 mph /  1.6 km/h 82 % 0 in /  0.0 mm
03:50 69.1 °F /  20.6 °C 63.3 °F /  17.4 °C 30 in /  1015.8 hPa WSW 1 mph /  1.6 km/h 2 mph /  3.2 km/h 82 % 0 in /  0.0 mm
04:00 68.9 °F /  20.5 °C 63.1 °F /  17.3 °C 30 in /  1014.8 hPa WSW 2 mph /  3.2 km/h 2 mph /  3.2 km/h 82 % 0 in /  0.0 mm
04:10 69.4 °F /  20.8 °C 64 °F /  17.8 °C 30 in /  1014.8 hPa Calm   1 mph /  1.6 km/h 83 % 0 in /  0.0 mm
04:20 70.3 °F /  21.3 °C 64.6 °F /  18.1 °C 30 in /  1014.8 hPa SSW 1 mph /  1.6 km/h 2 mph /  3.2 km/h 82 % 0 in /  0.0 mm
04:30 71.2 °F /  21.8 °C 64.8 °F /  18.2 °C 30 in /  1015.8 hPa SE 1 mph /  1.6 km/h 2 mph /  3.2 km/h 80 % 0 in /  0.0 mm
04:40 72.1 °F /  22.3 °C 65.3 °F /  18.5 °C 30 in /  1015.8 hPa Calm   2 mph /  3.2 km/h 79 % 0 in /  0.0 mm
04:50 72.9 °F /  22.7 °C 65.7 °F /  18.7 °C 30 in /  1014.8 hPa Calm   2 mph /  3.2 km/h 78 % 0 in /  0.0 mm
05:00 73.2 °F /  22.9 °C 65.1 °F /  18.4 °C 30 in /  1015.8 hPa NNE 2 mph /  3.2 km/h 4 mph /  6.4 km/h 76 % 0 in /  0.0 mm
05:10 73.8 °F /  23.2 °C 64.6 °F /  18.1 °C 30 in /  1015.8 hPa NE 2 mph /  3.2 km/h 6 mph /  9.7 km/h 73 % 0 in /  0.0 mm
05:20 74.3 °F /  23.5 °C 64.2 °F /  17.9 °C 30 in /  1014.8 hPa NE 3 mph /  4.8 km/h 6 mph /  9.7 km/h 71 % 0 in /  0.0 mm
05:30 75.4 °F /  24.1 °C 64.6 °F /  18.1 °C 30 in /  1014.8 hPa NE 3 mph /  4.8 km/h 4 mph /  6.4 km/h 69 % 0 in /  0.0 mm
05:40 75.7 °F /  24.3 °C 64 °F /  17.8 °C 30 in /  1014.8 hPa NE 2 mph /  3.2 km/h 8 mph /  12.9 km/h 67 % 0 in /  0.0 mm
05:50 77 °F /  25.0 °C 64.2 °F /  17.9 °C 30 in /  1015.8 hPa NNE 3 mph /  4.8 km/h 6 mph /  9.7 km/h 65 % 0 in /  0.0 mm
10:52 80.2 °F /  26.8 °C 66.6 °F /  19.2 °C 30 in /  1015.8 hPa NE 3.5 mph /  5.6 km/h 3.5 mph /  5.6 km/h 63 % 0 in /  0.0 mm
10:53 80.2 °F /  26.8 °C 66.6 °F /  19.2 °C 30 in /  1015.8 hPa East 3.5 mph /  5.6 km/h 3.5 mph /  5.6 km/h 63 % 0 in /  0.0 mm
10:55 80.6 °F /  27.0 °C 66.4 °F /  19.1 °C 30 in /  1015.8 hPa NNE 3.5 mph /  5.6 km/h 3.5 mph /  5.6 km/h 62 % 0 in /  0.0 mm
11:00 80.6 °F /  27.0 °C 65.8 °F /  18.8 °C 30 in /  1015.8 hPa ENE 2.4 mph /  3.9 km/h 2.4 mph /  3.9 km/h 61 % 0 in /  0.0 mm
11:05 80.6 °F /  27.0 °C 65.5 °F /  18.6 °C 30 in /  1015.8 hPa NE 4.6 mph /  7.4 km/h 4.6 mph /  7.4 km/h 60 % 0 in /  0.0 mm
11:10 80.8 °F /  27.1 °C 65.7 °F /  18.7 °C 30 in /  1015.8 hPa WNW 2.3 mph /  3.7 km/h 2.4 mph /  3.9 km/h 60 % 0 in /  0.0 mm
11:15 81.7 °F /  27.6 °C 66.4 °F /  19.1 °C 30 in /  1015.8 hPa West 2 mph /  3.2 km/h 2 mph /  3.2 km/h 60 % 0 in /  0.0 mm
11:20 82.9 °F /  28.3 °C 67.1 °F /  19.5 °C 30 in /  1015.8 hPa NE 3.5 mph /  5.6 km/h 3.5 mph /  5.6 km/h 59 % 0 in /  0.0 mm
11:25 83.7 °F /  28.7 °C 66.7 °F /  19.3 °C 30 in /  1015.8 hPa NE 2.4 mph /  3.9 km/h 2.4 mph /  3.9 km/h 57 % 0 in /  0.0 mm
11:30 83.5 °F /  28.6 °C 66.6 °F /  19.2 °C 30 in /  1015.8 hPa ENE 2.3 mph /  3.7 km/h 2.3 mph /  3.7 km/h 57 % 0 in /  0.0 mm
11:35 83.7 °F /  28.7 °C 65.8 °F /  18.8 °C 30 in /  1015.8 hPa ESE 3.6 mph /  5.8 km/h 3.6 mph /  5.8 km/h 55 % 0 in /  0.0 mm
11:40 83.5 °F /  28.6 °C 64.6 °F /  18.1 °C 30 in /  1015.8 hPa NNE 3.5 mph /  5.6 km/h 3.5 mph /  5.6 km/h 53 % 0 in /  0.0 mm
11:45 84 °F /  28.9 °C 64.9 °F /  18.3 °C 30 in /  1014.8 hPa East 4.6 mph /  7.4 km/h 4.6 mph /  7.4 km/h 53 % 0 in /  0.0 mm
11:50 85.3 °F /  29.6 °C 66.2 °F /  19.0 °C 30 in /  1014.8 hPa ENE 2.4 mph /  3.9 km/h 2.4 mph /  3.9 km/h 53 % 0 in /  0.0 mm
11:55 84.2 °F /  29.0 °C 63 °F /  17.2 °C 30 in /  1014.8 hPa SSE 5.8 mph /  9.3 km/h 5.8 mph /  9.3 km/h 49 % 0 in /  0.0 mm
12:00 84.6 °F /  29.2 °C 63.9 °F /  17.7 °C 30 in /  1014.8 hPa NE 3.5 mph /  5.6 km/h 3.5 mph /  5.6 km/h 50 % 0 in /  0.0 mm
12:05 85.8 °F /  29.9 °C 64.6 °F /  18.1 °C 30 in /  1014.8 hPa SE 3.5 mph /  5.6 km/h 3.5 mph /  5.6 km/h 49 % 0 in /  0.0 mm
12:10 86.4 °F /  30.2 °C 63.9 °F /  17.7 °C 30 in /  1014.8 hPa SSE 4.6 mph /  7.4 km/h 4.6 mph /  7.4 km/h 47 % 0 in /  0.0 mm
12:15 86.9 °F /  30.5 °C 64.8 °F /  18.2 °C 30 in /  1014.8 hPa SSE 2.3 mph /  3.7 km/h 2.3 mph /  3.7 km/h 48 % 0 in /  0.0 mm
12:20 87.3 °F /  30.7 °C 65.8 °F /  18.8 °C 30 in /  1014.8 hPa SSW 4.6 mph /  7.4 km/h 4.6 mph /  7.4 km/h 49 % 0 in /  0.0 mm
12:25 86.4 °F /  30.2 °C 64.9 °F /  18.3 °C 30 in /  1014.8 hPa South 6.9 mph /  11.1 km/h 6.9 mph /  11.1 km/h 49 % 0 in /  0.0 mm
12:30 86.7 °F /  30.4 °C 65.3 °F /  18.5 °C 30 in /  1014.8 hPa East 4.9 mph /  7.9 km/h 4.9 mph /  7.9 km/h 49 % 0 in /  0.0 mm
12:35 87.3 °F /  30.7 °C 65.1 °F /  18.4 °C 30 in /  1014.8 hPa ESE 4.6 mph /  7.4 km/h 4.6 mph /  7.4 km/h 48 % 0 in /  0.0 mm
12:40 86.9 °F /  30.5 °C 64.8 °F /  18.2 °C 30 in /  1014.8 hPa ESE 5.8 mph /  9.3 km/h 5.8 mph /  9.3 km/h 48 % 0 in /  0.0 mm
12:45 86.5 °F /  30.3 °C 62.8 °F /  17.1 °C 30 in /  1014.8 hPa ESE 3.6 mph /  5.8 km/h 3.6 mph /  5.8 km/h 45 % 0 in /  0.0 mm
12:50 87.3 °F /  30.7 °C 64.6 °F /  18.1 °C 30 in /  1014.8 hPa South 6.9 mph /  11.1 km/h 6.9 mph /  11.1 km/h 47 % 0 in /  0.0 mm
12:55 88.5 °F /  31.4 °C 65.1 °F /  18.4 °C 30 in /  1014.8 hPa SSE 4.6 mph /  7.4 km/h 4.6 mph /  7.4 km/h 46 % 0 in /  0.0 mm
12:56 88.9 °F /  31.6 °C 65.5 °F /  18.6 °C 30 in /  1014.8 hPa ESE 5.9 mph /  9.5 km/h 5.9 mph /  9.5 km/h 46 % 0 in /  0.0 mm
13:01 87.6 °F /  30.9 °C 65.5 °F /  18.6 °C 30 in /  1014.8 hPa ESE 8.1 mph /  13.0 km/h 8.1 mph /  13.0 km/h 48 % 0 in /  0.0 mm
13:06 87.6 °F /  30.9 °C 66 °F /  18.9 °C 30 in /  1014.8 hPa ENE 5.8 mph /  9.3 km/h 5.8 mph /  9.3 km/h 49 % 0 in /  0.0 mm
13:11 87.1 °F /  30.6 °C 65.7 °F /  18.7 °C 30 in /  1014.8 hPa ESE 6.9 mph /  11.1 km/h 6.9 mph /  11.1 km/h 49 % 0 in /  0.0 mm
13:16 87.8 °F /  31.0 °C 66.4 °F /  19.1 °C 30 in /  1014.8 hPa East 6.9 mph /  11.1 km/h 6.9 mph /  11.1 km/h 49 % 0 in /  0.0 mm
13:21 87.8 °F /  31.0 °C 65.7 °F /  18.7 °C 30 in /  1014.8 hPa ESE 9.4 mph /  15.1 km/h 9.4 mph /  15.1 km/h 48 % 0 in /  0.0 mm
13:26 87.8 °F /  31.0 °C 65.1 °F /  18.4 °C 30 in /  1014.8 hPa ESE 8.5 mph /  13.7 km/h 8.5 mph /  13.7 km/h 47 % 0 in /  0.0 mm
13:31 88.5 °F /  31.4 °C 65.1 °F /  18.4 °C 30 in /  1014.8 hPa ESE 9.2 mph /  14.8 km/h 9.2 mph /  14.8 km/h 46 % 0 in /  0.0 mm
13:36 87.8 °F /  31.0 °C 64.4 °F /  18.0 °C 30 in /  1014.8 hPa ESE 6.4 mph /  10.3 km/h 6.4 mph /  10.3 km/h 46 % 0 in /  0.0 mm
13:41 88.2 °F /  31.2 °C 66 °F /  18.9 °C 30 in /  1014.8 hPa ESE 10.5 mph /  16.9 km/h 10.5 mph /  16.9 km/h 48 % 0 in /  0.0 mm
13:46 88 °F /  31.1 °C 65.8 °F /  18.8 °C 30 in /  1014.8 hPa ESE 9.2 mph /  14.8 km/h 9.2 mph /  14.8 km/h 48 % 0 in /  0.0 mm
13:51 88 °F /  31.1 °C 66.4 °F /  19.1 °C 30 in /  1014.8 hPa SE 10.4 mph /  16.7 km/h 10.4 mph /  16.7 km/h 49 % 0 in /  0.0 mm
13:56 87.6 °F /  30.9 °C 66.7 °F /  19.3 °C 29.9 in /  1013.8 hPa SSW 8.1 mph /  13.0 km/h 8.1 mph /  13.0 km/h 50 % 0 in /  0.0 mm
14:01 87.1 °F /  30.6 °C 66.7 °F /  19.3 °C 29.9 in /  1013.8 hPa East 10.4 mph /  16.7 km/h 10.4 mph /  16.7 km/h 51 % 0 in /  0.0 mm
14:06 87.3 °F /  30.7 °C 66.9 °F /  19.4 °C 29.9 in /  1013.8 hPa ESE 8.1 mph /  13.0 km/h 8.1 mph /  13.0 km/h 51 % 0 in /  0.0 mm
14:11 87.6 °F /  30.9 °C 67.3 °F /  19.6 °C 30 in /  1014.8 hPa ESE 6.9 mph /  11.1 km/h 6.9 mph /  11.1 km/h 51 % 0 in /  0.0 mm
14:16 87.4 °F /  30.8 °C 66.6 °F /  19.2 °C 30 in /  1014.8 hPa SE 10.4 mph /  16.7 km/h 10.4 mph /  16.7 km/h 50 % 0 in /  0.0 mm
14:21 87.8 °F /  31.0 °C 65.7 °F /  18.7 °C 30 in /  1014.8 hPa ESE 7.4 mph /  11.9 km/h 7.4 mph /  11.9 km/h 48 % 0 in /  0.0 mm
14:26 88.2 °F /  31.2 °C 66.6 °F /  19.2 °C 30 in /  1014.8 hPa ENE 5.6 mph /  9.0 km/h 5.6 mph /  9.0 km/h 49 % 0 in /  0.0 mm
14:31 87.4 °F /  30.8 °C 65.8 °F /  18.8 °C 30 in /  1014.8 hPa SE 6.9 mph /  11.1 km/h 6.9 mph /  11.1 km/h 49 % 0 in /  0.0 mm
14:36 88.2 °F /  31.2 °C 66.6 °F /  19.2 °C 30 in /  1014.8 hPa SE 4 mph /  6.4 km/h 4 mph /  6.4 km/h 49 % 0 in /  0.0 mm
14:41 87.3 °F /  30.7 °C 65.8 °F /  18.8 °C 30 in /  1014.8 hPa East 9.2 mph /  14.8 km/h 9.2 mph /  14.8 km/h 49 % 0 in /  0.0 mm
14:46 87.4 °F /  30.8 °C 65.8 °F /  18.8 °C 30 in /  1014.8 hPa ESE 4.6 mph /  7.4 km/h 4.7 mph /  7.6 km/h 49 % 0 in /  0.0 mm
14:51 88.3 °F /  31.3 °C 66.2 °F /  19.0 °C 30 in /  1014.8 hPa SSE 5.8 mph /  9.3 km/h 5.8 mph /  9.3 km/h 48 % 0 in /  0.0 mm
14:56 87.6 °F /  30.9 °C 65.5 °F /  18.6 °C 30 in /  1014.8 hPa SE 8.1 mph /  13.0 km/h 8.1 mph /  13.0 km/h 48 % 0 in /  0.0 mm
15:01 88 °F /  31.1 °C 65.8 °F /  18.8 °C 30 in /  1014.8 hPa ENE 11.5 mph /  18.5 km/h 11.5 mph /  18.5 km/h 48 % 0 in /  0.0 mm
15:06 88.2 °F /  31.2 °C 65.5 °F /  18.6 °C 30 in /  1014.8 hPa ESE 11.5 mph /  18.5 km/h 11.5 mph /  18.5 km/h 47 % 0 in /  0.0 mm
15:11 87.6 °F /  30.9 °C 65.5 °F /  18.6 °C 30 in /  1014.8 hPa SW 9.2 mph /  14.8 km/h 9.2 mph /  14.8 km/h 48 % 0 in /  0.0 mm
15:16 88 °F /  31.1 °C 65.8 °F /  18.8 °C 30 in /  1014.8 hPa ESE 5.8 mph /  9.3 km/h 5.8 mph /  9.3 km/h 48 % 0 in /  0.0 mm
15:21 87.3 °F /  30.7 °C 65.1 °F /  18.4 °C 30 in /  1014.8 hPa ESE 8.1 mph /  13.0 km/h 8.1 mph /  13.0 km/h 48 % 0 in /  0.0 mm
15:26 86.5 °F /  30.3 °C 65.1 °F /  18.4 °C 30 in /  1014.8 hPa East 12.7 mph /  20.4 km/h 12.7 mph /  20.4 km/h 49 % 0 in /  0.0 mm
15:31 86.7 °F /  30.4 °C 65.3 °F /  18.5 °C 30 in /  1014.8 hPa ESE 8.1 mph /  13.0 km/h 8.1 mph /  13.0 km/h 49 % 0 in /  0.0 mm
15:36 86.7 °F /  30.4 °C 65.3 °F /  18.5 °C 30 in /  1014.8 hPa SSE 9.2 mph /  14.8 km/h 9.2 mph /  14.8 km/h 49 % 0 in /  0.0 mm
15:41 86.7 °F /  30.4 °C 65.8 °F /  18.8 °C 29.9 in /  1013.8 hPa ENE 9.2 mph /  14.8 km/h 9.2 mph /  14.8 km/h 50 % 0 in /  0.0 mm
15:46 87.1 °F /  30.6 °C 66.2 °F /  19.0 °C 29.9 in /  1013.8 hPa ESE 8.1 mph /  13.0 km/h 8.1 mph /  13.0 km/h 50 % 0 in /  0.0 mm
15:51 86.2 °F /  30.1 °C 65.5 °F /  18.6 °C 29.9 in /  1013.8 hPa ESE 10.2 mph /  16.4 km/h 10.2 mph /  16.4 km/h 50 % 0 in /  0.0 mm
15:56 85.8 °F /  29.9 °C 64.9 °F /  18.3 °C 30 in /  1014.8 hPa ESE 8.1 mph /  13.0 km/h 8.1 mph /  13.0 km/h 50 % 0 in /  0.0 mm
16:01 85.6 °F /  29.8 °C 64.9 °F /  18.3 °C 30 in /  1014.8 hPa SE 10.2 mph /  16.4 km/h 10.2 mph /  16.4 km/h 50 % 0 in /  0.0 mm
16:06 85.8 °F /  29.9 °C 64.9 °F /  18.3 °C 30 in /  1014.8 hPa East 8.1 mph /  13.0 km/h 8.1 mph /  13.0 km/h 50 % 0 in /  0.0 mm
16:11 86.2 °F /  30.1 °C 65.5 °F /  18.6 °C 30 in /  1014.8 hPa SW 5.8 mph /  9.3 km/h 5.8 mph /  9.3 km/h 50 % 0 in /  0.0 mm
16:16 85.6 °F /  29.8 °C 65.5 °F /  18.6 °C 30 in /  1014.8 hPa ESE 10.5 mph /  16.9 km/h 10.5 mph /  16.9 km/h 51 % 0 in /  0.0 mm
16:21 85.6 °F /  29.8 °C 65.5 °F /  18.6 °C 30 in /  1014.8 hPa SSE 9.2 mph /  14.8 km/h 9.2 mph /  14.8 km/h 51 % 0 in /  0.0 mm
16:26 85.8 °F /  29.9 °C 64.9 °F /  18.3 °C 29.9 in /  1013.8 hPa ESE 8.1 mph /  13.0 km/h 8.1 mph /  13.0 km/h 50 % 0 in /  0.0 mm
16:31 85.6 °F /  29.8 °C 64.9 °F /  18.3 °C 29.9 in /  1013.8 hPa ESE 8.1 mph /  13.0 km/h 8.1 mph /  13.0 km/h 50 % 0 in /  0.0 mm
16:36 86.2 °F /  30.1 °C 65.5 °F /  18.6 °C 29.9 in /  1013.8 hPa ESE 6.9 mph /  11.1 km/h 6.9 mph /  11.1 km/h 50 % 0 in /  0.0 mm
16:41 86.4 °F /  30.2 °C 65.5 °F /  18.6 °C 30 in /  1014.8 hPa ESE 6.9 mph /  11.1 km/h 6.9 mph /  11.1 km/h 50 % 0 in /  0.0 mm
16:46 86.5 °F /  30.3 °C 65.1 °F /  18.4 °C 30 in /  1014.8 hPa ESE 12.7 mph /  20.4 km/h 12.7 mph /  20.4 km/h 49 % 0 in /  0.0 mm
16:51 86.7 °F /  30.4 °C 65.8 °F /  18.8 °C 30 in /  1014.8 hPa ESE 6.4 mph /  10.3 km/h 6.4 mph /  10.3 km/h 50 % 0 in /  0.0 mm
16:56 86 °F /  30.0 °C 65.1 °F /  18.4 °C 29.9 in /  1013.8 hPa ESE 8.1 mph /  13.0 km/h 8.1 mph /  13.0 km/h 50 % 0 in /  0.0 mm
17:01 86.5 °F /  30.3 °C 65.7 °F /  18.7 °C 29.9 in /  1013.8 hPa ESE 5.8 mph /  9.3 km/h 5.8 mph /  9.3 km/h 50 % 0 in /  0.0 mm
17:06 86.2 °F /  30.1 °C 65.5 °F /  18.6 °C 29.9 in /  1013.8 hPa ESE 12.7 mph /  20.4 km/h 12.7 mph /  20.4 km/h 50 % 0 in /  0.0 mm
17:11 86.5 °F /  30.3 °C 65.7 °F /  18.7 °C 29.9 in /  1013.8 hPa ENE 8.1 mph /  13.0 km/h 8.1 mph /  13.0 km/h 50 % 0 in /  0.0 mm
17:16 86.5 °F /  30.3 °C 65.7 °F /  18.7 °C 29.9 in /  1013.8 hPa ESE 8.1 mph /  13.0 km/h 8.1 mph /  13.0 km/h 50 % 0 in /  0.0 mm
17:21 86 °F /  30.0 °C 65.1 °F /  18.4 °C 29.9 in /  1013.8 hPa ESE 6.9 mph /  11.1 km/h 6.9 mph /  11.1 km/h 50 % 0 in /  0.0 mm
17:26 86 °F /  30.0 °C 65.1 °F /  18.4 °C 29.9 in /  1013.8 hPa ESE 11.2 mph /  18.0 km/h 11.2 mph /  18.0 km/h 50 % 0 in /  0.0 mm
17:31 85.5 °F /  29.7 °C 65.3 °F /  18.5 °C 29.9 in /  1013.8 hPa ESE 8.1 mph /  13.0 km/h 8.1 mph /  13.0 km/h 51 % 0 in /  0.0 mm
17:36 86 °F /  30.0 °C 65.1 °F /  18.4 °C 29.9 in /  1013.8 hPa SSE 5.8 mph /  9.3 km/h 5.8 mph /  9.3 km/h 50 % 0 in /  0.0 mm
17:41 85.6 °F /  29.8 °C 64.9 °F /  18.3 °C 29.9 in /  1013.8 hPa NNE 6.9 mph /  11.1 km/h 6.9 mph /  11.1 km/h 50 % 0 in /  0.0 mm
17:46 85.5 °F /  29.7 °C 64.8 °F /  18.2 °C 29.9 in /  1013.8 hPa ESE 8.1 mph /  13.0 km/h 8.1 mph /  13.0 km/h 50 % 0 in /  0.0 mm
17:51 85.6 °F /  29.8 °C 64.9 °F /  18.3 °C 29.9 in /  1013.8 hPa ESE 8.1 mph /  13.0 km/h 8.1 mph /  13.0 km/h 50 % 0 in /  0.0 mm
17:56 85.1 °F /  29.5 °C 64.4 °F /  18.0 °C 29.9 in /  1013.8 hPa ESE 7.4 mph /  11.9 km/h 7.4 mph /  11.9 km/h 50 % 0 in /  0.0 mm
18:01 85.3 °F /  29.6 °C 64 °F /  17.8 °C 29.9 in /  1013.8 hPa ESE 5.8 mph /  9.3 km/h 5.8 mph /  9.3 km/h 49 % 0 in /  0.0 mm
18:06 85.3 °F /  29.6 °C 64 °F /  17.8 °C 29.9 in /  1013.8 hPa ENE 6.2 mph /  10.0 km/h 6.2 mph /  10.0 km/h 49 % 0 in /  0.0 mm
18:11 85.3 °F /  29.6 °C 64 °F /  17.8 °C 29.9 in /  1013.8 hPa East 6.9 mph /  11.1 km/h 6.9 mph /  11.1 km/h 49 % 0 in /  0.0 mm
18:16 85.1 °F /  29.5 °C 63.9 °F /  17.7 °C 29.9 in /  1013.8 hPa ESE 9.7 mph /  15.6 km/h 9.7 mph /  15.6 km/h 49 % 0 in /  0.0 mm
18:21 84.7 °F /  29.3 °C 63.5 °F /  17.5 °C 29.9 in /  1013.8 hPa ESE 10.5 mph /  16.9 km/h 10.5 mph /  16.9 km/h 49 % 0 in /  0.0 mm
18:26 84.6 °F /  29.2 °C 63.9 °F /  17.7 °C 29.9 in /  1013.8 hPa East 8.1 mph /  13.0 km/h 8.1 mph /  13.0 km/h 50 % 0 in /  0.0 mm
18:31 84.4 °F /  29.1 °C 63.7 °F /  17.6 °C 29.9 in /  1013.8 hPa ENE 10.4 mph /  16.7 km/h 10.4 mph /  16.7 km/h 50 % 0 in /  0.0 mm
18:36 84.4 °F /  29.1 °C 64.2 °F /  17.9 °C 29.9 in /  1013.8 hPa East 9.2 mph /  14.8 km/h 9.2 mph /  14.8 km/h 51 % 0 in /  0.0 mm
18:42 84 °F /  28.9 °C 64.6 °F /  18.1 °C 29.9 in /  1013.8 hPa ENE 10.4 mph /  16.7 km/h 10.4 mph /  16.7 km/h 52 % 0 in /  0.0 mm
18:47 84 °F /  28.9 °C 64.6 °F /  18.1 °C 29.9 in /  1013.8 hPa SE 9.2 mph /  14.8 km/h 9.2 mph /  14.8 km/h 52 % 0 in /  0.0 mm
18:52 84 °F /  28.9 °C 64.9 °F /  18.3 °C 29.9 in /  1013.8 hPa SE 8.1 mph /  13.0 km/h 8.1 mph /  13.0 km/h 53 % 0 in /  0.0 mm
18:57 83.5 °F /  28.6 °C 65.1 °F /  18.4 °C 29.9 in /  1013.8 hPa SE 8.5 mph /  13.7 km/h 8.5 mph /  13.7 km/h 54 % 0 in /  0.0 mm
19:02 82.9 °F /  28.3 °C 65.1 °F /  18.4 °C 29.9 in /  1013.8 hPa SE 10.4 mph /  16.7 km/h 10.4 mph /  16.7 km/h 55 % 0 in /  0.0 mm
19:07 82.6 °F /  28.1 °C 65.3 °F /  18.5 °C 29.9 in /  1013.8 hPa ENE 8.1 mph /  13.0 km/h 8.1 mph /  13.0 km/h 56 % 0 in /  0.0 mm
19:12 82.4 °F /  28.0 °C 65.7 °F /  18.7 °C 29.9 in /  1013.8 hPa ESE 6.9 mph /  11.1 km/h 6.9 mph /  11.1 km/h 57 % 0 in /  0.0 mm
19:17 81.9 °F /  27.7 °C 65.7 °F /  18.7 °C 29.9 in /  1013.8 hPa ESE 10.4 mph /  16.7 km/h 10.4 mph /  16.7 km/h 58 % 0 in /  0.0 mm
19:22 81.5 °F /  27.5 °C 65.8 °F /  18.8 °C 29.9 in /  1013.8 hPa ESE 9.2 mph /  14.8 km/h 9.2 mph /  14.8 km/h 59 % 0 in /  0.0 mm
19:27 81.1 °F /  27.3 °C 65.8 °F /  18.8 °C 29.9 in /  1013.8 hPa ESE 8.1 mph /  13.0 km/h 8.1 mph /  13.0 km/h 60 % 0 in /  0.0 mm
19:32 81 °F /  27.2 °C 65.8 °F /  18.8 °C 29.9 in /  1013.8 hPa East 6.9 mph /  11.1 km/h 6.9 mph /  11.1 km/h 60 % 0 in /  0.0 mm
19:37 80.8 °F /  27.1 °C 66 °F /  18.9 °C 29.9 in /  1013.8 hPa ESE 8.1 mph /  13.0 km/h 8.1 mph /  13.0 km/h 61 % 0 in /  0.0 mm
19:42 80.4 °F /  26.9 °C 66.7 °F /  19.3 °C 29.9 in /  1013.8 hPa East 8.1 mph /  13.0 km/h 8.1 mph /  13.0 km/h 63 % 0 in /  0.0 mm
19:47 80.1 °F /  26.7 °C 66.7 °F /  19.3 °C 29.9 in /  1013.8 hPa ESE 9.2 mph /  14.8 km/h 9.2 mph /  14.8 km/h 64 % 0 in /  0.0 mm
19:52 80.1 °F /  26.7 °C 66.7 °F /  19.3 °C 29.9 in /  1013.8 hPa ESE 4.9 mph /  7.9 km/h 4.9 mph /  7.9 km/h 64 % 0 in /  0.0 mm
19:57 79.9 °F /  26.6 °C 66.6 °F /  19.2 °C 29.9 in /  1013.8 hPa ESE 3.5 mph /  5.6 km/h 3.5 mph /  5.6 km/h 64 % 0 in /  0.0 mm
20:02 79.7 °F /  26.5 °C 66 °F /  18.9 °C 29.9 in /  1013.8 hPa ENE 2.3 mph /  3.7 km/h   63 % 0 in /  0.0 mm
20:07 79.7 °F /  26.5 °C 66.4 °F /  19.1 °C 29.9 in /  1013.8 hPa ESE 3.5 mph /  5.6 km/h 3.5 mph /  5.6 km/h 64 % 0 in /  0.0 mm
20:12 79.5 °F /  26.4 °C 66.4 °F /  19.1 °C 30 in /  1014.8 hPa NE 2.3 mph /  3.7 km/h 2.3 mph /  3.7 km/h 64 % 0 in /  0.0 mm
20:15 75.6 °F /  24.2 °C 67.1 °F /  19.5 °C 30 in /  1014.8 hPa East 2 mph /  3.2 km/h 2 mph /  3.2 km/h 75 % 0 in /  0.0 mm
20:17 79.5 °F /  26.4 °C 66.4 °F /  19.1 °C 30 in /  1014.8 hPa ENE 2.3 mph /  3.7 km/h 2.3 mph /  3.7 km/h 64 % 0 in /  0.0 mm
20:22 79.3 °F /  26.3 °C 66 °F /  18.9 °C 30 in /  1014.8 hPa ENE 2.3 mph /  3.7 km/h 2.3 mph /  3.7 km/h 64 % 0 in /  0.0 mm
20:25 75.4 °F /  24.1 °C 66.9 °F /  19.4 °C 30 in /  1014.8 hPa East 2 mph /  3.2 km/h 2 mph /  3.2 km/h 75 % 0 in /  0.0 mm
20:27 79.2 °F /  26.2 °C 65.8 °F /  18.8 °C 30 in /  1014.8 hPa NE 1.2 mph /  1.9 km/h 1.4 mph /  2.3 km/h 64 % 0 in /  0.0 mm
20:32 79.2 °F /  26.2 °C 65.8 °F /  18.8 °C 30 in /  1014.8 hPa Calm     64 % 0 in /  0.0 mm
20:35 75.2 °F /  24.0 °C 66.7 °F /  19.3 °C 30 in /  1014.8 hPa ENE 2 mph /  3.2 km/h 3 mph /  4.8 km/h 75 % 0 in /  0.0 mm
20:37 79.2 °F /  26.2 °C 65.8 °F /  18.8 °C 30 in /  1014.8 hPa WSW 2.3 mph /  3.7 km/h 2.3 mph /  3.7 km/h 64 % 0 in /  0.0 mm
20:42 79.3 °F /  26.3 °C 66 °F /  18.9 °C 30 in /  1014.8 hPa WSW 3.5 mph /  5.6 km/h 3.5 mph /  5.6 km/h 64 % 0 in /  0.0 mm
20:45 75.2 °F /  24.0 °C 67.1 °F /  19.5 °C 29.9 in /  1013.8 hPa East 1 mph /  1.6 km/h 3 mph /  4.8 km/h 76 % 0 in /  0.0 mm
20:47 79.2 °F /  26.2 °C 65.8 °F /  18.8 °C 30 in /  1014.8 hPa SW 3.5 mph /  5.6 km/h 3.5 mph /  5.6 km/h 64 % 0 in /  0.0 mm
20:52 79.2 °F /  26.2 °C 65.8 °F /  18.8 °C 30 in /  1014.8 hPa SW 3.6 mph /  5.8 km/h 3.6 mph /  5.8 km/h 64 % 0 in /  0.0 mm
20:55 75 °F /  23.9 °C 66.9 °F /  19.4 °C 29.9 in /  1013.8 hPa Calm   3 mph /  4.8 km/h 76 % 0 in /  0.0 mm
20:57 79.2 °F /  26.2 °C 66.4 °F /  19.1 °C 30 in /  1014.8 hPa SW 2.3 mph /  3.7 km/h 2.3 mph /  3.7 km/h 65 % 0 in /  0.0 mm
21:02 79 °F /  26.1 °C 66.2 °F /  19.0 °C 30 in /  1014.8 hPa SW 2.3 mph /  3.7 km/h 2.3 mph /  3.7 km/h 65 % 0 in /  0.0 mm
21:05 75 °F /  23.9 °C 66.6 °F /  19.2 °C 30 in /  1014.8 hPa NNE 1 mph /  1.6 km/h 2 mph /  3.2 km/h 75 % 0 in /  0.0 mm
21:07 78.8 °F /  26.0 °C 66 °F /  18.9 °C 30 in /  1014.8 hPa SW 2.3 mph /  3.7 km/h 2.3 mph /  3.7 km/h 65 % 0 in /  0.0 mm
21:12 78.8 °F /  26.0 °C 66 °F /  18.9 °C 30 in /  1014.8 hPa SW 2.3 mph /  3.7 km/h 2.3 mph /  3.7 km/h 65 % 0 in /  0.0 mm
21:15 74.8 °F /  23.8 °C 66.7 °F /  19.3 °C 30 in /  1014.8 hPa Calm   2 mph /  3.2 km/h 76 % 0 in /  0.0 mm
21:17 78.6 °F /  25.9 °C 66.4 °F /  19.1 °C 30 in /  1014.8 hPa SW 2.6 mph /  4.2 km/h 2.6 mph /  4.2 km/h 66 % 0 in /  0.0 mm
21:22 78.4 °F /  25.8 °C 66 °F /  18.9 °C 30 in /  1014.8 hPa WSW 2.6 mph /  4.2 km/h 2.6 mph /  4.2 km/h 66 % 0 in /  0.0 mm
21:25 74.7 °F /  23.7 °C 66.6 °F /  19.2 °C 30 in /  1014.8 hPa West 2 mph /  3.2 km/h 2 mph /  3.2 km/h 76 % 0 in /  0.0 mm
21:27 78.3 °F /  25.7 °C 66 °F /  18.9 °C 30 in /  1014.8 hPa SW 2.3 mph /  3.7 km/h 2.3 mph /  3.7 km/h 66 % 0 in /  0.0 mm
21:32 78.3 °F /  25.7 °C 66 °F /  18.9 °C 30 in /  1014.8 hPa SW 3.5 mph /  5.6 km/h 3.5 mph /  5.6 km/h 66 % 0 in /  0.0 mm
21:35 74.7 °F /  23.7 °C 66.9 °F /  19.4 °C 30 in /  1014.8 hPa Calm   1 mph /  1.6 km/h 77 % 0 in /  0.0 mm
21:37 77.9 °F /  25.5 °C 66 °F /  18.9 °C 30 in /  1014.8 hPa SW 2.6 mph /  4.2 km/h 2.6 mph /  4.2 km/h 67 % 0 in /  0.0 mm
21:42 77.7 °F /  25.4 °C 65.8 °F /  18.8 °C 30 in /  1015.8 hPa WSW 3.5 mph /  5.6 km/h 3.5 mph /  5.6 km/h 67 % 0 in /  0.0 mm
21:43 77.7 °F /  25.4 °C 65.8 °F /  18.8 °C 30 in /  1015.8 hPa West 3.5 mph /  5.6 km/h 3.5 mph /  5.6 km/h 67 % 0 in /  0.0 mm
21:45 74.7 °F /  23.7 °C 66.9 °F /  19.4 °C 30 in /  1014.8 hPa Calm     77 % 0 in /  0.0 mm
21:48 77.5 °F /  25.3 °C 65.7 °F /  18.7 °C 30 in /  1015.8 hPa SW 4.6 mph /  7.4 km/h 4.6 mph /  7.4 km/h 67 % 0 in /  0.0 mm
21:53 77.4 °F /  25.2 °C 65.5 °F /  18.6 °C 30 in /  1015.8 hPa SW 5.8 mph /  9.3 km/h 5.8 mph /  9.3 km/h 67 % 0 in /  0.0 mm
21:55 74.5 °F /  23.6 °C 66.7 °F /  19.3 °C 30 in /  1014.8 hPa Calm     77 % 0 in /  0.0 mm
21:58 77.4 °F /  25.2 °C 66 °F /  18.9 °C 30 in /  1015.8 hPa SW 3.5 mph /  5.6 km/h 3.5 mph /  5.6 km/h 68 % 0 in /  0.0 mm
22:03 77.2 °F /  25.1 °C 65.8 °F /  18.8 °C 30 in /  1015.8 hPa SW 2.3 mph /  3.7 km/h   68 % 0 in /  0.0 mm
22:05 74.1 °F /  23.4 °C 66.4 °F /  19.1 °C 30 in /  1014.8 hPa Calm   2 mph /  3.2 km/h 77 % 0 in /  0.0 mm
22:08 77 °F /  25.0 °C 65.7 °F /  18.7 °C 30 in /  1015.8 hPa SW 2.3 mph /  3.7 km/h 2.3 mph /  3.7 km/h 68 % 0 in /  0.0 mm
22:13 77 °F /  25.0 °C 65.7 °F /  18.7 °C 30 in /  1015.8 hPa SW 2.3 mph /  3.7 km/h   68 % 0 in /  0.0 mm
22:15 73.8 °F /  23.2 °C 66 °F /  18.9 °C 30 in /  1014.8 hPa Calm     77 % 0 in /  0.0 mm
22:18 76.8 °F /  24.9 °C 65.8 °F /  18.8 °C 30 in /  1015.8 hPa West 3.5 mph /  5.6 km/h 3.5 mph /  5.6 km/h 69 % 0 in /  0.0 mm
22:23 76.8 °F /  24.9 °C 66.4 °F /  19.1 °C 30 in /  1015.8 hPa SW 2.3 mph /  3.7 km/h 2.3 mph /  3.7 km/h 70 % 0 in /  0.0 mm
22:25 73.6 °F /  23.1 °C 65.8 °F /  18.8 °C 30 in /  1014.8 hPa Calm   3 mph /  4.8 km/h 77 % 0 in /  0.0 mm
22:28 76.6 °F /  24.8 °C 66 °F /  18.9 °C 30 in /  1014.8 hPa West 2.3 mph /  3.7 km/h 2.3 mph /  3.7 km/h 70 % 0 in /  0.0 mm
22:33 76.6 °F /  24.8 °C 66 °F /  18.9 °C 30 in /  1014.8 hPa WSW 2.3 mph /  3.7 km/h 2.3 mph /  3.7 km/h 70 % 0 in /  0.0 mm
22:35 73.6 °F /  23.1 °C 66.4 °F /  19.1 °C 30 in /  1014.8 hPa Calm   2 mph /  3.2 km/h 78 % 0 in /  0.0 mm
22:38 76.5 °F /  24.7 °C 65.8 °F /  18.8 °C 30 in /  1014.8 hPa West 2.3 mph /  3.7 km/h 2.3 mph /  3.7 km/h 70 % 0 in /  0.0 mm
22:43 76.3 °F /  24.6 °C 66.2 °F /  19.0 °C 30 in /  1015.8 hPa SW 1.2 mph /  1.9 km/h   71 % 0 in /  0.0 mm
22:45 73.6 °F /  23.1 °C 65.8 °F /  18.8 °C 29.9 in /  1013.8 hPa SW 1 mph /  1.6 km/h 2 mph /  3.2 km/h 77 % 0 in /  0.0 mm
22:48 76.1 °F /  24.5 °C 66 °F /  18.9 °C 30 in /  1015.8 hPa SW 1.2 mph /  1.9 km/h   71 % 0 in /  0.0 mm
22:53 76.1 °F /  24.5 °C 66 °F /  18.9 °C 30 in /  1015.8 hPa South 1.2 mph /  1.9 km/h   71 % 0 in /  0.0 mm
22:55 73.4 °F /  23.0 °C 66 °F /  18.9 °C 29.9 in /  1013.8 hPa SW 1 mph /  1.6 km/h 2 mph /  3.2 km/h 78 % 0 in /  0.0 mm
22:58 75.9 °F /  24.4 °C 65.8 °F /  18.8 °C 30 in /  1014.8 hPa SSE 1.2 mph /  1.9 km/h 1.2 mph /  1.9 km/h 71 % 0 in /  0.0 mm
23:03 75.7 °F /  24.3 °C 65.7 °F /  18.7 °C 30 in /  1014.8 hPa Calm     71 % 0 in /  0.0 mm
23:05 73 °F /  22.8 °C 66 °F /  18.9 °C 29.9 in /  1013.8 hPa Calm   1 mph /  1.6 km/h 79 % 0 in /  0.0 mm
23:08 75.7 °F /  24.3 °C 66 °F /  18.9 °C 30 in /  1014.8 hPa SSE 1.2 mph /  1.9 km/h   72 % 0 in /  0.0 mm
23:13 75.7 °F /  24.3 °C 66 °F /  18.9 °C 30 in /  1014.8 hPa Calm     72 % 0 in /  0.0 mm
23:15 73 °F /  22.8 °C 66 °F /  18.9 °C 29.9 in /  1013.8 hPa SW 1 mph /  1.6 km/h 2 mph /  3.2 km/h 79 % 0 in /  0.0 mm
23:18 75.7 °F /  24.3 °C 66.6 °F /  19.2 °C 30 in /  1014.8 hPa South 1.2 mph /  1.9 km/h   73 % 0 in /  0.0 mm
23:23 75.7 °F /  24.3 °C 66.6 °F /  19.2 °C 30 in /  1014.8 hPa Calm     73 % 0 in /  0.0 mm
23:25 72.9 °F /  22.7 °C 66.4 °F /  19.1 °C 29.9 in /  1013.8 hPa SW 1 mph /  1.6 km/h 2 mph /  3.2 km/h 80 % 0 in /  0.0 mm
23:28 75.7 °F /  24.3 °C 66.6 °F /  19.2 °C 30 in /  1014.8 hPa ENE 1.6 mph /  2.6 km/h   73 % 0 in /  0.0 mm
23:33 75.6 °F /  24.2 °C 66.4 °F /  19.1 °C 30 in /  1014.8 hPa ENE 1.2 mph /  1.9 km/h 1.4 mph /  2.3 km/h 73 % 0 in /  0.0 mm
23:35 72.9 °F /  22.7 °C 66.4 °F /  19.1 °C 29.9 in /  1013.8 hPa Calm   2 mph /  3.2 km/h 80 % 0 in /  0.0 mm
23:38 75.6 °F /  24.2 °C 66.4 °F /  19.1 °C 30 in /  1014.8 hPa Calm     73 % 0 in /  0.0 mm
23:43 75.4 °F /  24.1 °C 66 °F /  18.9 °C 30 in /  1014.8 hPa Calm     73 % 0 in /  0.0 mm
23:45 72.7 °F /  22.6 °C 66.6 °F /  19.2 °C 29.9 in /  1013.8 hPa Calm   1 mph /  1.6 km/h 81 % 0 in /  0.0 mm
23:48 75.4 °F /  24.1 °C 66 °F /  18.9 °C 30 in /  1014.8 hPa ENE 1.2 mph /  1.9 km/h   73 % 0 in /  0.0 mm
23:53 75.4 °F /  24.1 °C 66 °F /  18.9 °C 30 in /  1014.8 hPa Calm     73 % 0 in /  0.0 mm
23:55 72.7 °F /  22.6 °C 66.6 °F /  19.2 °C 29.9 in /  1013.8 hPa ESE 1 mph /  1.6 km/h 1 mph /  1.6 km/h 81 % 0 in /  0.0 mm
23:58 75.4 °F /  24.1 °C 66.6 °F /  19.2 °C 30 in /  1014.8 hPa ENE 1.2 mph /  1.9 km/h   74 % 0 in /  0.0 mm
Meteo Sesrovires
Elogis d' Weather Underground - 3.75 mb

Guio original per  Jim McMurry - jmcmurry@mwt.net Adaptat per a la plantilla per  Wim van der Kuil - Leuven-Template.eu

Trobareu la nostra informacio del temps tambe a:

Weather Underground

AWEKAS